createdAt,value
2023-03-15T00:00:55.753Z,95975.59
2023-03-15T00:03:24.451Z,95973.53
2023-03-15T00:05:52.312Z,95984.13
2023-03-15T00:09:27.728Z,95981.44
2023-03-15T00:11:54.727Z,95993.81
2023-03-15T00:14:21.724Z,96009.94
2023-03-15T00:16:48.243Z,96014.25
2023-03-15T00:19:16.656Z,96039.75
2023-03-15T00:21:43.443Z,96043.97
2023-03-15T00:24:11.778Z,96052.16
2023-03-15T00:26:38.832Z,96056.09
2023-03-15T00:29:05.826Z,96045.16
2023-03-15T00:31:33.068Z,96046.03
2023-03-15T00:33:59.616Z,96043.78
2023-03-15T00:36:26.131Z,96049.72
2023-03-15T00:38:53.906Z,96072.47
2023-03-15T00:41:22.311Z,96073.53
2023-03-15T00:43:49.604Z,96084.91
2023-03-15T00:46:17.622Z,96092.44
2023-03-15T00:48:48.176Z,96105.81
2023-03-15T00:51:21.187Z,96116.97
2023-03-15T00:53:48.972Z,96115.56
2023-03-15T00:56:21.676Z,96114.41
2023-03-15T00:58:48.320Z,96129.31
2023-03-15T01:04:50.346Z,96134.28
2023-03-15T01:07:17.438Z,96130.75
2023-03-15T01:09:45.850Z,96139.97
2023-03-15T01:12:13.915Z,96156.13
2023-03-15T01:14:40.433Z,96175.13
2023-03-15T01:17:06.916Z,96181.38
2023-03-15T01:19:34.452Z,96201.22
2023-03-15T01:22:00.960Z,96209.25
2023-03-15T01:24:27.356Z,96198.56
2023-03-15T01:26:53.729Z,96189.06
2023-03-15T01:29:20.133Z,96184.78
2023-03-15T01:31:46.583Z,96189.88
2023-03-15T01:34:13.048Z,96188.00
2023-03-15T01:36:39.450Z,96178.56
2023-03-15T01:39:05.860Z,96189.63
2023-03-15T01:41:32.665Z,96202.38
2023-03-15T01:43:59.450Z,96199.31
2023-03-15T01:46:30.144Z,96203.34
2023-03-15T01:49:08.050Z,96224.50
2023-03-15T01:51:41.808Z,96229.28
2023-03-15T01:54:27.360Z,96226.84
2023-03-15T01:57:12.946Z,96245.28
2023-03-15T01:59:46.064Z,96234.16
2023-03-15T02:02:14.939Z,96245.47
2023-03-15T02:05:00.688Z,96249.09
2023-03-15T02:07:29.139Z,96256.13
2023-03-15T02:10:09.674Z,96255.41
2023-03-15T02:12:40.689Z,96255.81
2023-03-15T02:15:08.600Z,96237.78
2023-03-15T02:17:43.768Z,96249.56
2023-03-15T02:21:04.422Z,96250.16
2023-03-15T02:23:32.422Z,96243.56
2023-03-15T02:26:33.415Z,96248.88
2023-03-15T02:29:00.400Z,96245.19
2023-03-15T02:31:27.481Z,96252.41
2023-03-15T02:33:57.269Z,96244.63
2023-03-15T02:36:26.530Z,96249.19
2023-03-15T02:38:54.617Z,96254.47
2023-03-15T02:41:27.412Z,96254.53
2023-03-15T02:43:58.416Z,96254.88
2023-03-15T02:46:24.978Z,96261.34
2023-03-15T02:48:54.203Z,96263.09
2023-03-15T02:51:24.026Z,96256.75
2023-03-15T02:53:50.820Z,96257.88
2023-03-15T02:56:17.387Z,96264.41
2023-03-15T02:58:46.777Z,96245.06
2023-03-15T03:01:15.432Z,96249.44
2023-03-15T03:03:42.972Z,96249.69
2023-03-15T03:06:10.770Z,96266.88
2023-03-15T03:08:37.597Z,96258.72
2023-03-15T03:11:06.023Z,96254.72
2023-03-15T03:13:32.764Z,96264.59
2023-03-15T03:15:59.826Z,96259.22
2023-03-15T03:18:28.009Z,96252.94
2023-03-15T03:20:59.135Z,96268.09
2023-03-15T03:23:26.389Z,96275.84
2023-03-15T03:25:57.077Z,96271.47
2023-03-15T03:28:25.905Z,96268.19
2023-03-15T03:30:54.444Z,96268.78
2023-03-15T03:33:22.146Z,96281.84
2023-03-15T03:35:49.626Z,96273.66
2023-03-15T03:38:16.461Z,96276.00
2023-03-15T03:40:42.944Z,96286.38
2023-03-15T03:43:09.461Z,96290.88
2023-03-15T03:45:36.003Z,96298.44
2023-03-15T03:48:02.452Z,96291.38
2023-03-15T03:50:28.926Z,96295.06
2023-03-15T03:52:55.435Z,96302.13
2023-03-15T03:55:25.242Z,96294.28
2023-03-15T03:57:52.968Z,96289.59
2023-03-15T04:00:20.187Z,96301.88
2023-03-15T04:02:46.678Z,96299.28
2023-03-15T04:05:13.289Z,96290.91
2023-03-15T04:07:40.107Z,96305.25
2023-03-15T04:10:06.931Z,96297.66
2023-03-15T04:12:34.156Z,96291.19
2023-03-15T04:15:00.636Z,96309.63
2023-03-15T04:17:27.583Z,96322.13
2023-03-15T04:19:53.997Z,96321.22
2023-03-15T04:22:20.377Z,96335.34
2023-03-15T04:24:50.675Z,96329.63
2023-03-15T04:27:17.339Z,96338.81
2023-03-15T04:29:44.054Z,96334.84
2023-03-15T04:32:11.172Z,96342.63
2023-03-15T04:34:38.906Z,96331.88
2023-03-15T04:37:06.255Z,96329.03
2023-03-15T04:39:32.704Z,96332.44
2023-03-15T04:41:59.159Z,96345.06
2023-03-15T04:44:26.675Z,96334.41
2023-03-15T04:46:56.377Z,96343.25
2023-03-15T04:49:22.830Z,96352.66
2023-03-15T04:51:49.239Z,96357.72
2023-03-15T04:54:15.858Z,96356.41
2023-03-15T04:56:42.258Z,96366.69
2023-03-15T04:59:10.584Z,96367.19
2023-03-15T05:01:38.395Z,96386.56
2023-03-15T05:04:07.885Z,96382.69
2023-03-15T05:06:37.273Z,96383.03
2023-03-15T05:09:04.287Z,96391.41
2023-03-15T05:11:31.150Z,96397.53
2023-03-15T05:13:57.637Z,96398.28
2023-03-15T05:16:24.183Z,96404.00
2023-03-15T05:18:50.661Z,96406.97
2023-03-15T05:21:17.102Z,96418.03
2023-03-15T05:23:43.874Z,96415.66
2023-03-15T05:26:10.416Z,96427.28
2023-03-15T05:28:36.849Z,96433.66
2023-03-15T05:31:05.445Z,96439.56
2023-03-15T05:33:31.974Z,96442.78
2023-03-15T05:35:59.519Z,96441.84
2023-03-15T05:38:26.897Z,96459.47
2023-03-15T05:40:54.584Z,96457.66
2023-03-15T05:43:21.944Z,96468.78
2023-03-15T05:45:49.396Z,96471.50
2023-03-15T05:48:16.804Z,96470.72
2023-03-15T05:50:43.636Z,96474.44
2023-03-15T05:53:10.581Z,96480.72
2023-03-15T05:55:37.373Z,96476.72
2023-03-15T05:58:04.876Z,96479.63
2023-03-15T06:00:31.737Z,96483.06
2023-03-15T06:02:58.225Z,96493.72
2023-03-15T06:05:24.938Z,96498.22
2023-03-15T06:07:51.394Z,96504.53
2023-03-15T06:10:22.939Z,96511.25
2023-03-15T06:12:50.438Z,96504.22
2023-03-15T06:15:17.317Z,96516.38
2023-03-15T06:17:43.809Z,96513.53
2023-03-15T06:20:13.851Z,96504.59
2023-03-15T06:22:40.317Z,96501.16
2023-03-15T06:25:07.815Z,96510.88
2023-03-15T06:27:35.197Z,96521.06
2023-03-15T06:30:02.706Z,96512.38
2023-03-15T06:32:29.358Z,96519.34
2023-03-15T06:34:56.129Z,96514.34
2023-03-15T06:37:34.694Z,96522.50
2023-03-15T06:40:09.774Z,96524.59
2023-03-15T06:42:36.622Z,96532.94
2023-03-15T06:45:04.065Z,96533.03
2023-03-15T06:47:30.761Z,96532.38
2023-03-15T06:49:57.249Z,96535.13
2023-03-15T06:52:24.215Z,96534.25
2023-03-15T06:54:50.670Z,96538.38
2023-03-15T06:57:17.263Z,96549.19
2023-03-15T06:59:43.676Z,96548.91
2023-03-15T07:02:14.962Z,96541.53
2023-03-15T07:04:41.501Z,96547.56
2023-03-15T07:07:07.928Z,96549.22
2023-03-15T07:09:35.408Z,96550.13
2023-03-15T07:12:01.855Z,96553.53
2023-03-15T07:14:28.277Z,96542.94
2023-03-15T07:16:54.801Z,96558.38
2023-03-15T07:19:24.208Z,96554.78
2023-03-15T07:21:50.628Z,96564.84
2023-03-15T07:24:17.141Z,96567.56
2023-03-15T07:26:43.973Z,96566.47
2023-03-15T07:29:10.624Z,96573.19
2023-03-15T07:31:37.228Z,96573.38
2023-03-15T07:34:04.773Z,96576.03
2023-03-15T07:36:32.295Z,96581.91
2023-03-15T07:38:58.716Z,96585.84
2023-03-15T07:41:25.125Z,96585.78
2023-03-15T07:43:51.596Z,96589.44
2023-03-15T07:46:18.170Z,96586.94
2023-03-15T07:48:44.667Z,96585.13
2023-03-15T07:51:11.084Z,96588.63
2023-03-15T07:53:37.586Z,96589.88
2023-03-15T07:56:05.076Z,96587.63
2023-03-15T07:58:31.678Z,96585.38
2023-03-15T08:00:58.426Z,96587.94
2023-03-15T08:03:26.840Z,96587.53
2023-03-15T08:05:53.674Z,96594.88
2023-03-15T08:08:20.280Z,96594.50
2023-03-15T08:10:46.871Z,96589.88
2023-03-15T08:13:13.482Z,96584.25
2023-03-15T08:15:40.835Z,96583.34
2023-03-15T08:18:07.316Z,96586.94
2023-03-15T08:20:36.738Z,96590.28
2023-03-15T08:23:03.769Z,96581.66
2023-03-15T08:25:30.886Z,96584.41
2023-03-15T08:27:57.477Z,96584.19
2023-03-15T08:30:24.175Z,96583.72
2023-03-15T08:32:52.643Z,96579.00
2023-03-15T08:35:21.332Z,96572.22
2023-03-15T08:37:48.097Z,96574.41
2023-03-15T08:40:16.974Z,96566.75
2023-03-15T08:42:43.396Z,96563.31
2023-03-15T08:45:11.267Z,96564.25
2023-03-15T08:47:38.119Z,96559.38
2023-03-15T08:50:08.611Z,96558.41
2023-03-15T08:52:35.430Z,96560.38
2023-03-15T08:55:02.115Z,96564.22
2023-03-15T08:57:29.734Z,96555.75
2023-03-15T08:59:56.273Z,96561.28
2023-03-15T09:02:23.528Z,96561.09
2023-03-15T09:04:52.400Z,96556.72
2023-03-15T09:07:21.710Z,96553.13
2023-03-15T09:09:49.279Z,96550.41
2023-03-15T09:12:16.965Z,96547.25
2023-03-15T09:14:44.149Z,96537.88
2023-03-15T09:17:10.943Z,96545.47
2023-03-15T09:19:37.449Z,96542.94
2023-03-15T09:22:16.387Z,96553.22
2023-03-15T09:24:51.506Z,96553.00
2023-03-15T09:27:18.538Z,96554.75
2023-03-15T09:29:44.978Z,96550.22
2023-03-15T09:32:11.819Z,96552.22
2023-03-15T09:34:41.984Z,96550.28
2023-03-15T09:37:09.674Z,96558.91
2023-03-15T09:39:36.158Z,96551.50
2023-03-15T09:42:06.566Z,96554.44
2023-03-15T09:44:49.564Z,96554.72
2023-03-15T09:47:31.161Z,96566.84
2023-03-15T09:50:27.280Z,96561.28
2023-03-15T09:53:02.375Z,96564.72
2023-03-15T09:55:29.640Z,96568.44
2023-03-15T09:57:59.748Z,96570.38
2023-03-15T10:00:49.258Z,96569.75
2023-03-15T10:03:40.625Z,96569.19
2023-03-15T10:06:29.258Z,96572.22
2023-03-15T10:09:01.397Z,96565.50
2023-03-15T10:11:48.436Z,96570.38
2023-03-15T10:14:39.261Z,96577.31
2023-03-15T10:17:20.777Z,96582.53
2023-03-15T10:19:50.994Z,96580.25
2023-03-15T10:22:35.146Z,96584.75
2023-03-15T10:25:14.398Z,96593.66
2023-03-15T10:28:05.425Z,96588.00
2023-03-15T10:30:37.728Z,96588.19
2023-03-15T10:33:16.245Z,96582.94
2023-03-15T10:35:45.411Z,96573.63
2023-03-15T10:38:24.571Z,96576.50
2023-03-15T10:40:55.289Z,96572.66
2023-03-15T10:43:25.985Z,96582.69
2023-03-15T10:46:06.099Z,96580.16
2023-03-15T10:48:35.648Z,96572.78
2023-03-15T10:51:25.158Z,96557.88
2023-03-15T10:54:02.606Z,96570.00
2023-03-15T10:56:31.850Z,96558.50
2023-03-15T10:59:11.834Z,96561.03
2023-03-15T11:01:40.074Z,96551.75
2023-03-15T11:04:06.529Z,96551.84
2023-03-15T11:06:42.074Z,96562.53
2023-03-15T11:09:15.207Z,96556.09
2023-03-15T11:11:52.600Z,96559.66
2023-03-15T11:14:19.579Z,96565.31
2023-03-15T11:16:52.144Z,96554.25
2023-03-15T11:19:22.951Z,96541.78
2023-03-15T11:21:51.328Z,96546.81
2023-03-15T11:24:29.818Z,96540.81
2023-03-15T11:27:01.676Z,96542.72
2023-03-15T11:29:35.038Z,96538.84
2023-03-15T11:32:10.759Z,96543.69
2023-03-15T11:34:40.237Z,96528.97
2023-03-15T11:37:20.770Z,96518.34
2023-03-15T11:40:11.722Z,96512.66
2023-03-15T11:42:50.938Z,96509.91
2023-03-15T11:45:31.745Z,96500.66
2023-03-15T11:48:04.698Z,96496.53
2023-03-15T11:50:31.133Z,96493.97
2023-03-15T11:53:04.174Z,96487.78
2023-03-15T11:55:32.614Z,96489.50
2023-03-15T11:58:31.879Z,96477.47
2023-03-15T12:01:06.445Z,96477.56
2023-03-15T12:03:42.502Z,96479.22
2023-03-15T12:06:18.711Z,96468.34
2023-03-15T12:08:48.393Z,96468.47
2023-03-15T12:11:23.726Z,96453.13
2023-03-15T12:13:53.639Z,96451.34
2023-03-15T12:16:21.990Z,96451.19
2023-03-15T12:18:48.980Z,96446.72
2023-03-15T12:21:31.416Z,96437.78
2023-03-15T12:24:23.629Z,96433.97
2023-03-15T12:26:58.724Z,96417.69
2023-03-15T12:29:28.043Z,96412.94
2023-03-15T12:31:57.246Z,96404.53
2023-03-15T12:34:28.514Z,96412.47
2023-03-15T12:37:06.906Z,96410.16
2023-03-15T12:40:01.909Z,96410.81
2023-03-15T12:42:31.309Z,96414.09
2023-03-15T12:45:16.298Z,96415.44
2023-03-15T12:47:51.941Z,96406.22
2023-03-15T12:50:47.954Z,96410.44
2023-03-15T12:53:27.946Z,96407.69
2023-03-15T12:56:07.823Z,96407.50
2023-03-15T12:58:36.861Z,96403.00
2023-03-15T13:01:06.413Z,96401.72
2023-03-15T13:03:36.466Z,96401.53
2023-03-15T13:06:30.763Z,96406.13
2023-03-15T13:09:21.264Z,96406.78
2023-03-15T13:11:59.305Z,96406.31
2023-03-15T13:14:37.048Z,96394.03
2023-03-15T13:17:17.832Z,96404.09
2023-03-15T13:19:46.947Z,96397.09
2023-03-15T13:22:41.285Z,96393.31
2023-03-15T13:25:29.244Z,96399.69
2023-03-15T13:27:56.822Z,96387.59
2023-03-15T13:30:46.559Z,96392.88
2023-03-15T13:33:25.112Z,96389.56
2023-03-15T13:35:56.030Z,96381.78
2023-03-15T13:38:28.540Z,96388.91
2023-03-15T13:40:57.380Z,96370.63
2023-03-15T13:43:31.711Z,96382.78
2023-03-15T13:45:59.219Z,96380.53
2023-03-15T13:48:36.412Z,96382.94
2023-03-15T13:51:23.208Z,96385.88
2023-03-15T13:53:52.810Z,96371.09
2023-03-15T13:56:28.331Z,96372.41
2023-03-15T13:58:57.243Z,96376.41
2023-03-15T14:01:24.700Z,96361.84
2023-03-15T14:04:01.627Z,96372.78
2023-03-15T14:06:29.641Z,96365.81
2023-03-15T14:09:00.360Z,96369.31
2023-03-15T14:11:27.302Z,96362.81
2023-03-15T14:13:58.353Z,96368.63
2023-03-15T14:16:57.333Z,96369.47
2023-03-15T14:19:30.182Z,96367.50
2023-03-15T14:21:58.963Z,96366.34
2023-03-15T14:24:40.711Z,96370.72
2023-03-15T14:27:22.557Z,96371.59
2023-03-15T14:29:57.944Z,96376.16
2023-03-15T14:32:27.111Z,96376.09
2023-03-15T14:35:20.103Z,96373.16
2023-03-15T14:37:46.604Z,96377.28
2023-03-15T14:40:23.183Z,96379.03
2023-03-15T14:42:50.744Z,96377.66
2023-03-15T14:45:19.272Z,96374.06
2023-03-15T14:47:56.865Z,96384.13
2023-03-15T14:50:27.194Z,96384.91
2023-03-15T14:52:54.339Z,96378.31
2023-03-15T14:55:27.790Z,96376.94
2023-03-15T14:57:54.203Z,96385.75
2023-03-15T15:00:21.060Z,96375.16
2023-03-15T15:02:51.999Z,96381.09
2023-03-15T15:05:26.212Z,96383.81
2023-03-15T15:07:58.938Z,96379.25
2023-03-15T15:10:25.769Z,96388.59
2023-03-15T15:13:04.798Z,96382.19
2023-03-15T15:15:40.781Z,96381.13
2023-03-15T15:18:18.073Z,96389.78
2023-03-15T15:20:45.196Z,96376.09
2023-03-15T15:23:23.225Z,96376.53
2023-03-15T15:25:50.538Z,96379.38
2023-03-15T15:28:33.407Z,96374.47
2023-03-15T15:31:01.573Z,96385.41
2023-03-15T15:33:28.009Z,96392.25
2023-03-15T15:35:56.389Z,96401.31
2023-03-15T15:38:33.071Z,96396.16
2023-03-15T15:40:59.735Z,96396.03
2023-03-15T15:43:26.138Z,96382.22
2023-03-15T15:45:52.787Z,96399.16
2023-03-15T15:48:19.236Z,96404.41
2023-03-15T15:50:45.658Z,96409.72
2023-03-15T15:53:19.844Z,96408.66
2023-03-15T15:55:46.299Z,96420.28
2023-03-15T15:58:14.128Z,96420.75
2023-03-15T16:00:40.688Z,96426.00
2023-03-15T16:03:16.554Z,96419.28
2023-03-15T16:05:44.061Z,96430.00
2023-03-15T16:08:22.293Z,96436.28
2023-03-15T16:10:52.901Z,96437.63
2023-03-15T16:13:19.442Z,96439.03
2023-03-15T16:15:45.913Z,96443.19
2023-03-15T16:18:12.882Z,96443.53
2023-03-15T16:20:41.571Z,96447.78
2023-03-15T16:23:11.906Z,96446.84
2023-03-15T16:25:38.364Z,96451.81
2023-03-15T16:28:07.690Z,96456.06
2023-03-15T16:30:35.475Z,96460.34
2023-03-15T16:33:02.251Z,96458.31
2023-03-15T16:35:36.615Z,96468.84
2023-03-15T16:38:06.286Z,96473.47
2023-03-15T16:40:35.625Z,96473.66
2023-03-15T16:43:03.138Z,96468.94
2023-03-15T16:45:29.557Z,96483.66
2023-03-15T16:47:56.565Z,96480.34
2023-03-15T16:50:24.103Z,96484.03
2023-03-15T16:52:55.011Z,96494.13
2023-03-15T16:55:27.871Z,96495.03
2023-03-15T16:57:55.100Z,96497.69
2023-03-15T17:00:22.263Z,96498.72
2023-03-15T17:02:50.273Z,96501.03
2023-03-15T17:05:19.003Z,96506.53
2023-03-15T17:07:52.588Z,96510.56
2023-03-15T17:10:23.575Z,96506.16
2023-03-15T17:12:52.269Z,96503.66
2023-03-15T17:15:20.561Z,96504.06
2023-03-15T17:17:49.979Z,96505.38
2023-03-15T17:20:21.755Z,96510.88
2023-03-15T17:22:58.610Z,96514.50
2023-03-15T17:25:25.386Z,96514.06
2023-03-15T17:27:52.628Z,96522.78
2023-03-15T17:30:31.908Z,96535.72
2023-03-15T17:32:59.146Z,96545.03
2023-03-15T17:35:35.291Z,96545.25
2023-03-15T17:38:11.381Z,96553.88
2023-03-15T17:40:37.978Z,96555.38
2023-03-15T17:43:05.538Z,96555.44
2023-03-15T17:45:33.947Z,96552.94
2023-03-15T17:48:01.915Z,96556.66
2023-03-15T17:50:30.617Z,96565.69
2023-03-15T17:53:05.293Z,96564.81
2023-03-15T17:55:36.303Z,96571.97
2023-03-15T17:58:09.159Z,96578.09
2023-03-15T18:00:36.802Z,96578.91
2023-03-15T18:03:04.725Z,96577.75
2023-03-15T18:05:31.944Z,96575.22
2023-03-15T18:07:59.552Z,96592.34
2023-03-15T18:10:31.519Z,96588.13
2023-03-15T18:12:59.150Z,96604.69
2023-03-15T18:15:25.574Z,96597.31
2023-03-15T18:17:52.140Z,96594.88
2023-03-15T18:20:22.323Z,96596.09
2023-03-15T18:22:48.858Z,96590.31
2023-03-15T18:25:27.307Z,96601.53
2023-03-15T18:27:54.177Z,96600.34
2023-03-15T18:30:23.056Z,96607.72
2023-03-15T18:32:50.806Z,96604.59
2023-03-15T18:35:22.896Z,96608.81
2023-03-15T18:37:49.389Z,96608.31
2023-03-15T18:40:18.375Z,96603.06
2023-03-15T18:42:45.513Z,96610.72
2023-03-15T18:45:33.088Z,96604.59
2023-03-15T18:47:59.980Z,96596.28
2023-03-15T18:50:27.716Z,96602.94
2023-03-15T18:52:54.757Z,96607.66
2023-03-15T18:55:24.728Z,96599.91
2023-03-15T18:57:52.691Z,96601.50
2023-03-15T19:00:29.453Z,96600.72
2023-03-15T19:03:01.359Z,96607.63
2023-03-15T19:05:29.632Z,96599.84
2023-03-15T19:07:56.426Z,96595.13
2023-03-15T19:10:23.870Z,96598.81
2023-03-15T19:12:52.324Z,96605.53
2023-03-15T19:15:21.491Z,96606.00
2023-03-15T19:17:50.918Z,96599.84
2023-03-15T19:20:21.386Z,96604.88
2023-03-15T19:22:48.237Z,96609.22
2023-03-15T19:25:14.988Z,96597.00
2023-03-15T19:27:42.801Z,96612.22
2023-03-15T19:30:12.447Z,96612.13
2023-03-15T19:32:40.397Z,96603.97
2023-03-15T19:35:07.376Z,96601.56
2023-03-15T19:37:35.030Z,96599.91
2023-03-15T19:40:01.964Z,96606.88
2023-03-15T19:42:28.370Z,96601.25
2023-03-15T19:44:54.883Z,96611.09
2023-03-15T19:47:21.396Z,96607.31
2023-03-15T19:49:47.842Z,96614.47
2023-03-15T19:52:15.975Z,96615.13
2023-03-15T19:54:42.456Z,96618.09
2023-03-15T19:57:08.965Z,96625.50
2023-03-15T19:59:40.104Z,96618.78
2023-03-15T20:02:13.764Z,96616.91
2023-03-15T20:04:40.606Z,96617.38
2023-03-15T20:07:10.116Z,96613.69
2023-03-15T20:09:40.357Z,96610.81
2023-03-15T20:12:10.054Z,96609.81
2023-03-15T20:14:37.557Z,96608.72
2023-03-15T20:17:04.159Z,96608.31
2023-03-15T20:19:31.081Z,96613.34
2023-03-15T20:21:58.042Z,96620.97
2023-03-15T20:24:24.844Z,96627.91
2023-03-15T20:26:52.410Z,96629.72
2023-03-15T20:29:19.258Z,96637.25
2023-03-15T20:31:45.941Z,96632.94
2023-03-15T20:34:12.545Z,96635.06
2023-03-15T20:36:39.000Z,96639.56
2023-03-15T20:39:06.569Z,96640.81
2023-03-15T20:41:33.456Z,96642.16
2023-03-15T20:43:59.965Z,96638.94
2023-03-15T20:46:27.830Z,96634.84
2023-03-15T20:48:54.309Z,96644.88
2023-03-15T20:51:21.125Z,96645.38
2023-03-15T20:53:48.149Z,96642.69
2023-03-15T20:56:14.630Z,96644.34
2023-03-15T20:58:41.455Z,96646.22
2023-03-15T21:01:09.935Z,96654.63
2023-03-15T21:03:37.645Z,96663.63
2023-03-15T21:06:06.597Z,96661.13
2023-03-15T21:08:35.878Z,96664.78
2023-03-15T21:11:04.966Z,96668.59
2023-03-15T21:13:32.173Z,96674.47
2023-03-15T21:15:58.935Z,96670.59
2023-03-15T21:18:25.544Z,96675.78
2023-03-15T21:21:00.611Z,96677.03
2023-03-15T21:23:27.989Z,96680.50
2023-03-15T21:25:55.558Z,96675.41
2023-03-15T21:28:22.726Z,96672.22
2023-03-15T21:30:53.744Z,96667.59
2023-03-15T21:33:24.986Z,96665.25
2023-03-15T21:35:51.565Z,96665.56
2023-03-15T21:38:18.674Z,96668.81
2023-03-15T21:40:47.110Z,96673.69
2023-03-15T21:43:13.958Z,96672.41
2023-03-15T21:45:42.061Z,96676.84
2023-03-15T21:48:08.661Z,96667.19
2023-03-15T21:50:36.503Z,96667.53
2023-03-15T21:53:03.821Z,96665.97
2023-03-15T21:55:33.539Z,96663.34
2023-03-15T21:58:01.951Z,96666.00
2023-03-15T22:00:29.809Z,96665.59
2023-03-15T22:02:56.412Z,96653.53
2023-03-15T22:05:23.358Z,96665.66
2023-03-15T22:07:49.905Z,96655.84
2023-03-15T22:10:17.040Z,96652.72
2023-03-15T22:12:43.522Z,96656.78
2023-03-15T22:15:10.809Z,96657.91
2023-03-15T22:17:37.509Z,96651.00
2023-03-15T22:20:10.035Z,96651.84
2023-03-15T22:22:37.034Z,96655.22
2023-03-15T22:25:03.721Z,96652.97
2023-03-15T22:27:30.763Z,96649.50
2023-03-15T22:29:57.729Z,96655.44
2023-03-15T22:32:24.190Z,96661.13
2023-03-15T22:34:51.335Z,96654.00
2023-03-15T22:37:17.772Z,96663.31
2023-03-15T22:39:44.189Z,96660.53
2023-03-15T22:42:10.766Z,96673.06
2023-03-15T22:44:37.259Z,96660.28
2023-03-15T22:47:03.700Z,96660.28
2023-03-15T22:49:30.163Z,96664.88
2023-03-15T22:51:56.697Z,96661.28
2023-03-15T22:54:24.477Z,96658.06
2023-03-15T22:56:51.298Z,96669.63
2023-03-15T22:59:17.874Z,96669.09
2023-03-15T23:01:44.383Z,96669.66
2023-03-15T23:04:10.940Z,96665.69
2023-03-15T23:06:37.782Z,96672.31
2023-03-15T23:09:06.660Z,96672.47
2023-03-15T23:11:33.292Z,96669.91
2023-03-15T23:13:59.690Z,96662.78
2023-03-15T23:16:26.137Z,96660.69
2023-03-15T23:18:52.809Z,96653.59
2023-03-15T23:21:19.487Z,96644.09
2023-03-15T23:23:46.017Z,96642.00
2023-03-15T23:26:14.228Z,96652.44
2023-03-15T23:28:40.710Z,96651.25
2023-03-15T23:31:07.599Z,96652.16
2023-03-15T23:33:34.255Z,96648.66
2023-03-15T23:36:06.968Z,96657.66
2023-03-15T23:38:36.541Z,96655.38
2023-03-15T23:41:05.543Z,96655.16
2023-03-15T23:43:33.466Z,96667.19
2023-03-15T23:46:03.639Z,96674.69
2023-03-15T23:48:35.373Z,96663.22
2023-03-15T23:51:06.277Z,96665.34
2023-03-15T23:53:32.757Z,96660.50
2023-03-15T23:55:59.384Z,96655.34
2023-03-15T23:58:25.880Z,96663.66
